createdAt,value
2023-01-15T00:00:00.276Z,974.2452
2023-01-15T00:01:00.422Z,974.2717
2023-01-15T00:02:00.579Z,974.1573
2023-01-15T00:03:00.779Z,974.1509
2023-01-15T00:04:00.939Z,974.1181
2023-01-15T00:05:01.008Z,974.1445
2023-01-15T00:06:01.155Z,974.2417
2023-01-15T00:07:00.301Z,974.1573
2023-01-15T00:08:00.454Z,974.0208
2023-01-15T00:09:00.616Z,974.2431
2023-01-15T00:10:00.736Z,974.0543
2023-01-15T00:11:00.896Z,973.9877
2023-01-15T00:12:01.032Z,974.1115
2023-01-15T00:13:01.196Z,973.9507
2023-01-15T00:14:00.365Z,974.0523
2023-01-15T00:15:00.502Z,974.0523
2023-01-15T00:16:00.729Z,974.2695
2023-01-15T00:17:00.777Z,974.0121
2023-01-15T00:18:00.933Z,973.8714
2023-01-15T00:19:01.091Z,973.8714
2023-01-15T00:20:01.241Z,974.0173
2023-01-15T00:21:00.365Z,973.9123
2023-01-15T00:22:00.527Z,973.8423
2023-01-15T00:23:00.661Z,973.9123
2023-01-15T00:24:00.811Z,973.8701
2023-01-15T00:25:00.961Z,973.8351
2023-01-15T00:26:01.118Z,973.8701
2023-01-15T00:27:00.291Z,973.7757
2023-01-15T00:28:01.835Z,973.6455
2023-01-15T00:29:00.562Z,974.0523
2023-01-15T00:30:00.701Z,973.9051
2023-01-15T00:31:00.870Z,973.7651
2023-01-15T00:32:00.998Z,973.8795
2023-01-15T00:33:01.164Z,973.7523
2023-01-15T00:34:00.292Z,973.9689
2023-01-15T00:35:00.445Z,973.7617
2023-01-15T00:36:00.580Z,973.7045
2023-01-15T00:37:00.731Z,973.6951
2023-01-15T00:38:00.894Z,973.6
2023-01-15T00:39:01.049Z,973.7651
2023-01-15T00:40:01.188Z,973.5178
2023-01-15T00:41:00.318Z,973.565
2023-01-15T00:42:00.470Z,973.4892
2023-01-15T00:43:00.618Z,973.7651
2023-01-15T00:44:00.778Z,973.2793
2023-01-15T00:45:00.911Z,973.3215
2023-01-15T00:46:01.053Z,973.1563
2023-01-15T00:47:01.210Z,973.2891
2023-01-15T00:48:00.348Z,973.2669
2023-01-15T00:49:00.513Z,973.1789
2023-01-15T00:50:00.655Z,973.2447
2023-01-15T00:51:00.809Z,973.1661
2023-01-15T00:52:00.966Z,973.0701
2023-01-15T00:53:01.113Z,973.0709
2023-01-15T00:54:01.278Z,973.2044
2023-01-15T00:55:00.410Z,973.1536
2023-01-15T00:56:00.561Z,973.0415
2023-01-15T00:57:00.698Z,973.0456
2023-01-15T00:58:00.846Z,973.0678
2023-01-15T00:59:01.000Z,973.0106
2023-01-15T01:00:01.142Z,973.0106
2023-01-15T01:01:00.508Z,972.9185
2023-01-15T01:02:00.645Z,972.9534
2023-01-15T01:03:00.581Z,973.052
2023-01-15T01:04:00.748Z,973.0538
2023-01-15T01:05:00.890Z,973.0538
2023-01-15T01:06:01.026Z,972.825
2023-01-15T01:07:01.174Z,973.0538
2023-01-15T01:08:00.333Z,972.825
2023-01-15T01:09:00.478Z,972.9394
2023-01-15T01:10:00.609Z,972.9108
2023-01-15T01:11:00.747Z,972.9394
2023-01-15T01:12:00.898Z,972.7392
2023-01-15T01:13:01.048Z,972.9021
2023-01-15T01:14:01.223Z,972.7782
2023-01-15T01:15:00.347Z,972.9182
2023-01-15T01:16:00.496Z,972.5534
2023-01-15T01:17:00.640Z,972.8643
2023-01-15T01:18:00.781Z,973.0932
2023-01-15T01:19:00.941Z,972.9882
2023-01-15T01:20:01.104Z,972.7475
2023-01-15T01:21:01.243Z,972.8597
2023-01-15T01:22:00.392Z,972.862
2023-01-15T01:23:00.530Z,972.7889
2023-01-15T01:24:00.685Z,972.7094
2023-01-15T01:25:00.851Z,972.862
2023-01-15T01:26:00.984Z,972.7889
2023-01-15T01:27:01.121Z,972.7222
2023-01-15T01:28:00.258Z,972.6458
2023-01-15T01:29:00.437Z,972.7475
2023-01-15T01:30:00.570Z,972.5949
2023-01-15T01:31:00.718Z,972.7253
2023-01-15T01:32:00.847Z,972.6839
2023-01-15T01:33:01.021Z,972.5893
2023-01-15T01:34:01.149Z,972.7889
2023-01-15T01:35:00.290Z,972.7879
2023-01-15T01:36:00.558Z,972.9532
2023-01-15T01:37:00.585Z,972.8643
2023-01-15T01:38:00.758Z,972.8643
2023-01-15T01:39:00.895Z,972.6854
2023-01-15T01:40:01.039Z,972.9882
2023-01-15T01:41:01.180Z,972.9532
2023-01-15T01:42:00.330Z,972.9182
2023-01-15T01:43:00.469Z,972.7021
2023-01-15T01:44:00.626Z,972.9414
2023-01-15T01:45:00.766Z,972.5996
2023-01-15T01:46:00.965Z,972.7593
2023-01-15T01:47:01.070Z,972.7879
2023-01-15T01:48:01.217Z,972.5876
2023-01-15T01:49:00.382Z,972.598
2023-01-15T01:50:00.500Z,972.7984
2023-01-15T01:51:00.684Z,972.827
2023-01-15T01:52:00.804Z,972.6903
2023-01-15T01:53:00.946Z,972.7189
2023-01-15T01:54:01.108Z,972.6616
2023-01-15T01:55:01.275Z,972.633
2023-01-15T01:56:00.409Z,972.6267
2023-01-15T01:57:00.570Z,972.7498
2023-01-15T01:58:00.707Z,972.5781
2023-01-15T01:59:00.842Z,972.4889
2023-01-15T02:00:01.046Z,972.8643
2023-01-15T02:01:01.283Z,972.6067
2023-01-15T02:02:00.380Z,972.6839
2023-01-15T02:03:00.460Z,972.6553
2023-01-15T02:04:00.646Z,972.6417
2023-01-15T02:05:00.735Z,972.4787
2023-01-15T02:06:00.894Z,972.4651
2023-01-15T02:07:01.033Z,972.7212
2023-01-15T02:08:01.205Z,972.4079
2023-01-15T02:09:00.330Z,972.4723
2023-01-15T02:10:00.493Z,972.4245
2023-01-15T02:11:00.652Z,972.1956
2023-01-15T02:12:00.783Z,972.322
2023-01-15T02:13:00.958Z,972.2434
2023-01-15T02:14:01.090Z,972.1575
2023-01-15T02:15:01.263Z,972.2346
2023-01-15T02:16:00.433Z,972.14
2023-01-15T02:17:00.533Z,972.1973
2023-01-15T02:18:00.689Z,972.1551
2023-01-15T02:19:00.862Z,972.0629
2023-01-15T02:20:00.976Z,972.0629
2023-01-15T02:21:01.117Z,972.0057
2023-01-15T02:22:00.272Z,971.9858
2023-01-15T02:23:00.415Z,971.9572
2023-01-15T02:24:02.989Z,971.9063
2023-01-15T02:25:00.717Z,972.0629
2023-01-15T02:26:00.855Z,971.9667
2023-01-15T02:27:01.016Z,972.0717
2023-01-15T02:28:01.182Z,971.9198
2023-01-15T02:29:00.338Z,971.9397
2023-01-15T02:30:00.447Z,972.0979
2023-01-15T02:31:00.624Z,972.1106
2023-01-15T02:32:00.771Z,972.1106
2023-01-15T02:33:00.906Z,971.9636
2023-01-15T02:34:01.045Z,971.9198
2023-01-15T02:35:01.206Z,971.9262
2023-01-15T02:36:00.345Z,971.8443
2023-01-15T02:37:00.506Z,972.0129
2023-01-15T02:38:00.667Z,971.857
2023-01-15T02:39:00.829Z,971.9397
2023-01-15T02:40:00.969Z,972.0288
2023-01-15T02:41:01.102Z,972.0638
2023-01-15T02:42:01.249Z,972.0542
2023-01-15T02:43:00.395Z,972.02
2023-01-15T02:44:00.576Z,972.1346
2023-01-15T02:45:00.705Z,971.9628
2023-01-15T02:46:00.960Z,972.0773
2023-01-15T02:47:01.002Z,972.1346
2023-01-15T02:48:01.146Z,972.1457
2023-01-15T02:49:00.311Z,972.1871
2023-01-15T02:50:00.463Z,972.1521
2023-01-15T02:51:00.647Z,972.2221
2023-01-15T02:52:00.754Z,972.0821
2023-01-15T02:53:00.905Z,972.1059
2023-01-15T02:54:01.048Z,971.9628
2023-01-15T02:55:01.228Z,971.9914
2023-01-15T02:56:00.351Z,972.1346
2023-01-15T02:57:00.487Z,971.9699
2023-01-15T02:58:00.629Z,972.0678
2023-01-15T02:59:00.777Z,971.9628
2023-01-15T03:00:00.939Z,972.0487
2023-01-15T03:01:01.188Z,971.9628
2023-01-15T03:02:01.348Z,972.001
2023-01-15T03:03:00.379Z,971.9628
2023-01-15T03:04:00.519Z,971.9628
2023-01-15T03:05:00.677Z,971.7787
2023-01-15T03:06:00.824Z,971.6196
2023-01-15T03:07:00.976Z,971.7588
2023-01-15T03:08:01.123Z,971.7485
2023-01-15T03:09:01.262Z,971.7151
2023-01-15T03:10:00.426Z,971.7151
2023-01-15T03:11:00.565Z,971.6976
2023-01-15T03:12:00.702Z,971.5583
2023-01-15T03:13:00.854Z,971.6156
2023-01-15T03:14:01.001Z,971.583
2023-01-15T03:15:01.177Z,971.6403
2023-01-15T03:16:00.315Z,971.7588
2023-01-15T03:17:00.479Z,971.5702
2023-01-15T03:18:00.628Z,971.5035
2023-01-15T03:19:00.770Z,971.6212
2023-01-15T03:20:00.914Z,971.6562
2023-01-15T03:21:01.069Z,971.5583
2023-01-15T03:22:01.231Z,971.5258
2023-01-15T03:23:00.355Z,971.7055
2023-01-15T03:24:00.512Z,971.6403
2023-01-15T03:25:00.671Z,971.5385
2023-01-15T03:26:00.791Z,971.5011
2023-01-15T03:27:00.968Z,971.4207
2023-01-15T03:28:01.127Z,971.4915
2023-01-15T03:29:00.287Z,971.4342
2023-01-15T03:30:00.442Z,971.4438
2023-01-15T03:31:00.603Z,971.4701
2023-01-15T03:32:00.715Z,971.4438
2023-01-15T03:33:00.861Z,971.5583
2023-01-15T03:34:01.023Z,971.4788
2023-01-15T03:35:01.182Z,971.6562
2023-01-15T03:36:00.306Z,971.4438
2023-01-15T03:37:00.462Z,971.4303
2023-01-15T03:38:00.610Z,971.4016
2023-01-15T03:39:00.769Z,971.4915
2023-01-15T03:40:00.950Z,971.4557
2023-01-15T03:41:01.138Z,971.4915
2023-01-15T03:42:01.199Z,971.5488
2023-01-15T03:43:00.351Z,971.3769
2023-01-15T03:44:00.499Z,971.4493
2023-01-15T03:45:00.658Z,971.4438
2023-01-15T03:46:00.847Z,971.4788
2023-01-15T03:47:00.939Z,971.3411
2023-01-15T03:48:01.094Z,971.186
2023-01-15T03:49:01.236Z,971.3356
2023-01-15T03:50:00.378Z,971.4207
2023-01-15T03:51:00.539Z,971.2584
2023-01-15T03:52:00.708Z,971.2171
2023-01-15T03:53:00.861Z,971.3094
2023-01-15T03:54:01.040Z,971.3047
2023-01-15T03:55:01.127Z,971.1249
2023-01-15T03:56:00.257Z,971.3006
2023-01-15T03:57:00.417Z,971.2871
2023-01-15T03:58:00.572Z,971.268
2023-01-15T03:59:00.743Z,971.2108
2023-01-15T04:00:00.880Z,971.1425
2023-01-15T04:01:01.159Z,971.3142
2023-01-15T04:02:01.352Z,971.1774
2023-01-15T04:03:00.311Z,971.2298
2023-01-15T04:04:00.497Z,971.2719
2023-01-15T04:05:00.625Z,971.3006
2023-01-15T04:06:00.749Z,971.3292
2023-01-15T04:07:00.895Z,971.2719
2023-01-15T04:08:01.036Z,971.2147
2023-01-15T04:09:01.210Z,971.1089
2023-01-15T04:10:00.367Z,971.2433
2023-01-15T04:11:00.500Z,971.3411
2023-01-15T04:12:00.633Z,971.3442
2023-01-15T04:13:00.766Z,971.2423
2023-01-15T04:14:00.937Z,971.2423
2023-01-15T04:15:01.101Z,971.1723
2023-01-15T04:16:01.383Z,971.1054
2023-01-15T04:17:00.354Z,971.0776
2023-01-15T04:18:00.511Z,971.0903
2023-01-15T04:19:00.645Z,971.0481
2023-01-15T04:20:00.826Z,971.1627
2023-01-15T04:21:00.944Z,971.2773
2023-01-15T04:22:01.080Z,971.201
2023-01-15T04:23:01.238Z,971.0927
2023-01-15T04:24:00.392Z,971.2495
2023-01-15T04:25:00.546Z,971.0641
2023-01-15T04:26:00.664Z,971.2495
2023-01-15T04:27:00.815Z,971.3545
2023-01-15T04:28:00.969Z,971.138
2023-01-15T04:29:01.136Z,971.1826
2023-01-15T04:31:00.416Z,971.0782
2023-01-15T04:32:00.528Z,971.1554
2023-01-15T04:33:00.659Z,971.2254
2023-01-15T04:34:00.844Z,971.1904
2023-01-15T04:35:00.967Z,970.9889
2023-01-15T04:36:01.115Z,971.0854
2023-01-15T04:37:01.253Z,971.0854
2023-01-15T04:38:00.408Z,971.0854
2023-01-15T04:39:00.569Z,970.9889
2023-01-15T04:40:00.699Z,970.8815
2023-01-15T04:41:00.859Z,971.2254
2023-01-15T04:42:01.003Z,971
2023-01-15T04:43:01.158Z,971.1482
2023-01-15T04:44:00.301Z,971.1482
2023-01-15T04:45:00.452Z,971.1482
2023-01-15T04:46:00.635Z,971.1904
2023-01-15T04:47:00.735Z,971.2182
2023-01-15T04:48:00.881Z,971.1904
2023-01-15T04:49:01.028Z,970.8853
2023-01-15T04:50:01.218Z,971.2604
2023-01-15T04:51:00.326Z,971.086
2023-01-15T04:52:00.484Z,971.0176
2023-01-15T04:53:00.658Z,970.8743
2023-01-15T04:54:00.779Z,971.0866
2023-01-15T04:55:00.943Z,971.038
2023-01-15T04:56:01.084Z,971.1273
2023-01-15T04:57:01.257Z,971.0127
2023-01-15T04:58:00.384Z,971.0248
2023-01-15T04:59:00.572Z,971.0176
2023-01-15T05:00:00.685Z,971.2182
2023-01-15T05:01:01.004Z,970.8528
2023-01-15T05:02:05.785Z,971.0176
2023-01-15T05:03:01.133Z,970.7184
2023-01-15T05:04:00.277Z,970.8528
2023-01-15T05:05:00.435Z,970.8853
2023-01-15T05:06:00.572Z,970.7994
2023-01-15T05:07:00.748Z,970.8853
2023-01-15T05:08:00.880Z,970.914
2023-01-15T05:09:01.015Z,970.8567
2023-01-15T05:10:01.165Z,971.0573
2023-01-15T05:11:00.324Z,970.9427
2023-01-15T05:12:00.494Z,971
2023-01-15T05:13:00.611Z,970.7955
2023-01-15T05:14:00.763Z,971
2023-01-15T05:15:00.933Z,971.0987
2023-01-15T05:16:01.120Z,970.8845
2023-01-15T05:17:01.234Z,970.7412
2023-01-15T05:18:00.351Z,970.828
2023-01-15T05:19:00.505Z,971
2023-01-15T05:20:00.656Z,970.8242
2023-01-15T05:21:00.798Z,970.9713
2023-01-15T05:22:00.956Z,970.9451
2023-01-15T05:23:01.099Z,971.0573
2023-01-15T05:24:01.244Z,971.3726
2023-01-15T05:25:00.389Z,971.3726
2023-01-15T05:26:00.533Z,971.6719
2023-01-15T05:27:00.683Z,971.8816
2023-01-15T05:28:00.829Z,971.7292
2023-01-15T05:29:00.989Z,971.8832
2023-01-15T05:30:01.121Z,972.0352
2023-01-15T05:31:01.309Z,971.9874
2023-01-15T05:32:00.414Z,972.0104
2023-01-15T05:33:00.546Z,971.9071
2023-01-15T05:34:00.738Z,971.9873
2023-01-15T05:35:00.848Z,971.9103
2023-01-15T05:36:00.997Z,971.8841
2023-01-15T05:37:01.135Z,971.8873
2023-01-15T05:38:00.287Z,971.9246
2023-01-15T05:39:00.452Z,971.9
2023-01-15T05:40:00.579Z,972.1816
2023-01-15T05:41:00.722Z,972.1427
2023-01-15T05:42:00.869Z,972.0443
2023-01-15T05:43:01.026Z,971.9698
2023-01-15T05:44:01.188Z,971.9357
2023-01-15T05:45:00.320Z,972.084
2023-01-15T05:46:00.488Z,972.2402
2023-01-15T05:47:00.639Z,972.122
2023-01-15T05:48:00.756Z,972.1093
2023-01-15T05:49:00.927Z,972.0617
2023-01-15T05:50:01.046Z,972.0292
2023-01-15T05:51:01.189Z,972.0514
2023-01-15T05:52:00.353Z,972.0863
2023-01-15T05:53:00.487Z,971.95
2023-01-15T05:54:00.661Z,972.0799
2023-01-15T05:55:00.786Z,971.9626
2023-01-15T05:56:00.929Z,972.0134
2023-01-15T05:57:01.091Z,972.0791
2023-01-15T05:58:01.219Z,971.9714
2023-01-15T05:59:00.387Z,971.9848
2023-01-15T06:00:00.523Z,972.1053
2023-01-15T06:01:00.693Z,972.0134
2023-01-15T06:02:00.810Z,972.1076
2023-01-15T06:03:01.049Z,972.1742
2023-01-15T06:04:01.208Z,972.1235
2023-01-15T06:05:01.251Z,972.1551
2023-01-15T06:06:00.438Z,972.2209
2023-01-15T06:07:00.551Z,972.5546
2023-01-15T06:08:01.461Z,972.3951
2023-01-15T06:09:00.870Z,972.3603
2023-01-15T06:10:01.023Z,972.3903
2023-01-15T06:11:01.160Z,972.3626
2023-01-15T06:12:00.301Z,972.3776
2023-01-15T06:13:00.440Z,972.4347
2023-01-15T06:14:00.587Z,972.479
2023-01-15T06:15:00.765Z,972.2952
2023-01-15T06:16:00.978Z,972.4536
2023-01-15T06:17:01.044Z,972.311
2023-01-15T06:18:01.205Z,972.4465
2023-01-15T06:19:00.344Z,972.3324
2023-01-15T06:20:00.509Z,972.3332
2023-01-15T06:21:00.632Z,972.6248
2023-01-15T06:22:00.789Z,972.3015
2023-01-15T06:23:00.931Z,972.3656
2023-01-15T06:24:01.111Z,972.4155
2023-01-15T06:25:01.263Z,972.4376
2023-01-15T06:26:00.383Z,972.3165
2023-01-15T06:27:00.531Z,972.4725
2023-01-15T06:28:00.683Z,972.4305
2023-01-15T06:29:00.829Z,972.6223
2023-01-15T06:30:00.979Z,972.4186
2023-01-15T06:31:01.177Z,972.4186
2023-01-15T06:32:01.258Z,972.3703
2023-01-15T06:33:00.409Z,972.3505
2023-01-15T06:34:00.563Z,972.322
2023-01-15T06:35:00.718Z,972.4558
2023-01-15T06:36:00.873Z,972.379
2023-01-15T06:37:01.041Z,972.3505
2023-01-15T06:38:01.161Z,972.4423
2023-01-15T06:39:00.305Z,972.3505
2023-01-15T06:40:00.442Z,972.2935
2023-01-15T06:41:00.624Z,972.4802
2023-01-15T06:42:00.759Z,972.4034
2023-01-15T06:43:00.934Z,972.6514
2023-01-15T06:44:01.041Z,972.4826
2023-01-15T06:45:01.189Z,972.6458
2023-01-15T06:46:00.347Z,972.6291
2023-01-15T06:47:00.489Z,972.6133
2023-01-15T06:48:00.645Z,972.6133
2023-01-15T06:49:00.787Z,972.6418
2023-01-15T06:50:00.954Z,972.686
2023-01-15T06:51:01.092Z,972.6377
2023-01-15T06:52:01.245Z,972.8023
2023-01-15T06:53:00.411Z,972.8023
2023-01-15T06:54:00.533Z,972.8743
2023-01-15T06:55:00.688Z,972.6907
2023-01-15T06:56:00.823Z,972.8331
2023-01-15T06:57:00.983Z,972.8458
2023-01-15T06:58:01.158Z,972.6907
2023-01-15T06:59:00.254Z,972.6558
2023-01-15T07:00:00.421Z,972.814
2023-01-15T07:01:00.702Z,972.7665
2023-01-15T07:02:00.725Z,972.8961
2023-01-15T07:03:00.874Z,972.9246
2023-01-15T07:04:01.026Z,972.855
2023-01-15T07:05:01.185Z,973.0004
2023-01-15T07:06:00.294Z,972.9719
2023-01-15T07:07:00.436Z,972.9656
2023-01-15T07:08:00.599Z,973.0903
2023-01-15T07:09:00.730Z,972.9986
2023-01-15T07:10:00.895Z,973.0049
2023-01-15T07:11:01.032Z,973.0776
2023-01-15T07:12:01.213Z,973.242
2023-01-15T07:13:00.331Z,973.1851
2023-01-15T07:14:00.489Z,973.0428
2023-01-15T07:15:00.624Z,972.9754
2023-01-15T07:16:00.816Z,973.0324
2023-01-15T07:17:00.932Z,973.3769
2023-01-15T07:18:01.066Z,973.2518
2023-01-15T07:19:01.238Z,973.2841
2023-01-15T07:20:00.378Z,973.2968
2023-01-15T07:21:00.521Z,973.3039
2023-01-15T07:22:00.678Z,973.2399
2023-01-15T07:23:00.799Z,973.3656
2023-01-15T07:24:00.989Z,973.4106
2023-01-15T07:25:01.114Z,973.5045
2023-01-15T07:26:01.245Z,973.5116
2023-01-15T07:27:00.405Z,973.5116
2023-01-15T07:28:00.549Z,973.5337
2023-01-15T07:29:00.734Z,973.5387
2023-01-15T07:30:00.849Z,973.6753
2023-01-15T07:31:01.026Z,973.5608
2023-01-15T07:32:01.146Z,973.6091
2023-01-15T07:33:00.298Z,973.6083
2023-01-15T07:34:00.461Z,973.5387
2023-01-15T07:35:00.605Z,973.6689
2023-01-15T07:36:00.747Z,973.7314
2023-01-15T07:37:00.892Z,973.6184
2023-01-15T07:38:01.045Z,973.8232
2023-01-15T07:39:01.222Z,973.8232
2023-01-15T07:40:00.331Z,973.7037
2023-01-15T07:41:00.477Z,973.6746
2023-01-15T07:42:00.653Z,973.8359
2023-01-15T07:43:00.756Z,973.7506
2023-01-15T07:44:00.925Z,973.7861
2023-01-15T07:45:01.051Z,973.8614
2023-01-15T07:46:01.239Z,974.0265
2023-01-15T07:47:00.345Z,973.8737
2023-01-15T07:48:00.487Z,973.8923
2023-01-15T07:49:00.639Z,973.9166
2023-01-15T07:50:00.814Z,973.7773
2023-01-15T07:51:00.940Z,973.7987
2023-01-15T07:52:01.077Z,973.6332
2023-01-15T07:53:01.247Z,974.0376
2023-01-15T07:54:00.374Z,973.9268
2023-01-15T07:55:00.553Z,973.8984
2023-01-15T07:56:00.702Z,973.968
2023-01-15T07:57:00.845Z,973.968
2023-01-15T07:58:00.990Z,973.9332
2023-01-15T07:59:01.135Z,974.0185
2023-01-15T08:00:00.295Z,973.8793
2023-01-15T08:01:00.558Z,973.917
2023-01-15T08:02:00.720Z,974.0549
2023-01-15T08:03:00.732Z,974.0202
2023-01-15T08:04:00.953Z,974.0983
2023-01-15T08:05:01.031Z,974.0202
2023-01-15T08:06:01.218Z,974.1466
2023-01-15T08:07:00.321Z,974.3426
2023-01-15T08:08:00.481Z,974.337
2023-01-15T08:09:00.624Z,974.3426
2023-01-15T08:10:00.808Z,974.4904
2023-01-15T08:11:00.946Z,974.3654
2023-01-15T08:12:01.064Z,974.2688
2023-01-15T08:13:01.217Z,974.1147
2023-01-15T08:14:00.371Z,974.1999
2023-01-15T08:15:00.502Z,974.2347
2023-01-15T08:16:00.677Z,974.1296
2023-01-15T08:17:00.810Z,974.4074
2023-01-15T08:18:00.961Z,974.3158
2023-01-15T08:19:01.107Z,974.1957
2023-01-15T08:20:01.282Z,974.4337
2023-01-15T08:21:00.413Z,974.2917
2023-01-15T08:22:00.561Z,974.4494
2023-01-15T08:23:00.695Z,974.3357
2023-01-15T08:24:00.838Z,974.2969
2023-01-15T08:25:00.973Z,974.1855
2023-01-15T08:26:01.126Z,974.3664
2023-01-15T08:27:00.298Z,974.3664
2023-01-15T08:28:00.461Z,974.4707
2023-01-15T08:29:00.588Z,974.2969
2023-01-15T08:30:00.752Z,974.3316
2023-01-15T08:31:00.895Z,974.3331
2023-01-15T08:32:03.260Z,974.1855
2023-01-15T08:33:01.203Z,974.1855
2023-01-15T08:34:00.321Z,974.1159
2023-01-15T08:35:00.489Z,974.0741
2023-01-15T08:36:00.633Z,974.2295
2023-01-15T08:37:00.835Z,974.1159
2023-01-15T08:38:00.958Z,974.1855
2023-01-15T08:39:01.099Z,974.1791
2023-01-15T08:40:01.271Z,974.3998
2023-01-15T08:41:00.374Z,974.3431
2023-01-15T08:42:00.523Z,974.2011
2023-01-15T08:43:00.691Z,974.3012
2023-01-15T08:44:00.813Z,974.2757
2023-01-15T08:45:00.970Z,974.4049
2023-01-15T08:46:01.226Z,974.3985
2023-01-15T08:47:00.264Z,974.2722
2023-01-15T08:48:00.436Z,974.329
2023-01-15T08:49:00.561Z,974.329
2023-01-15T08:50:00.709Z,974.4006
2023-01-15T08:51:00.848Z,974.2893
2023-01-15T08:52:01.067Z,974.4461
2023-01-15T08:53:01.174Z,974.39
2023-01-15T08:54:00.307Z,974.7022
2023-01-15T08:55:00.482Z,974.5781
2023-01-15T08:56:00.620Z,974.6284
2023-01-15T08:57:00.763Z,974.5525
2023-01-15T08:58:00.925Z,974.632
2023-01-15T08:59:01.042Z,974.5341
2023-01-15T09:00:01.203Z,974.5341
2023-01-15T09:01:00.416Z,974.4072
2023-01-15T09:02:00.569Z,974.4356
2023-01-15T09:03:00.660Z,974.4788
2023-01-15T09:04:00.787Z,974.5923
2023-01-15T09:05:01.044Z,974.7497
2023-01-15T09:06:01.088Z,974.6455
2023-01-15T09:07:01.353Z,974.6455
2023-01-15T09:08:00.397Z,974.6455
2023-01-15T09:09:00.557Z,974.6455
2023-01-15T09:10:00.675Z,974.6675
2023-01-15T09:11:00.828Z,974.6455
2023-01-15T09:12:00.978Z,974.4753
2023-01-15T09:13:01.161Z,974.6455
2023-01-15T09:14:00.269Z,974.7525
2023-01-15T09:15:03.142Z,974.5689
2023-01-15T09:16:00.598Z,974.6476
2023-01-15T09:17:00.730Z,974.6823
2023-01-15T09:18:00.903Z,974.7958
2023-01-15T09:19:01.009Z,974.8596
2023-01-15T09:20:01.180Z,974.8178
2023-01-15T09:21:00.299Z,974.761
2023-01-15T09:22:00.448Z,974.6916
2023-01-15T09:23:00.627Z,974.7355
2023-01-15T09:24:00.753Z,974.805
2023-01-15T09:25:00.921Z,974.6916
2023-01-15T09:26:01.063Z,974.7766
2023-01-15T09:27:01.196Z,974.783
2023-01-15T09:28:00.376Z,974.7483
2023-01-15T09:29:00.509Z,974.7547
2023-01-15T09:30:00.662Z,974.9779
2023-01-15T09:31:00.846Z,974.761
2023-01-15T09:32:00.951Z,974.9092
2023-01-15T09:33:01.196Z,974.9511
2023-01-15T09:34:00.280Z,974.7873
2023-01-15T09:35:00.431Z,974.9687
2023-01-15T09:36:00.583Z,974.8653
2023-01-15T09:37:00.750Z,974.9291
2023-01-15T09:38:00.887Z,974.8086
2023-01-15T09:39:01.012Z,974.7518
2023-01-15T09:40:01.182Z,974.8724
2023-01-15T09:41:00.318Z,974.7178
2023-01-15T09:42:00.498Z,974.8376
2023-01-15T09:43:00.617Z,974.8156
2023-01-15T09:44:00.786Z,974.7873
2023-01-15T09:45:00.964Z,974.7873
2023-01-15T09:46:01.143Z,974.8724
2023-01-15T09:47:01.222Z,974.7873
2023-01-15T09:48:00.375Z,974.8724
2023-01-15T09:49:00.514Z,974.9419
2023-01-15T09:50:00.656Z,974.9199
2023-01-15T09:51:00.821Z,974.8759
2023-01-15T09:52:00.952Z,974.9263
2023-01-15T09:53:01.096Z,974.7937
2023-01-15T09:54:01.243Z,974.7306
2023-01-15T09:55:00.397Z,974.9419
2023-01-15T09:56:00.563Z,974.9419
2023-01-15T09:57:00.669Z,974.8001
2023-01-15T09:58:00.810Z,974.7589
2023-01-15T09:59:00.986Z,975.017
2023-01-15T10:00:01.135Z,974.8156
2023-01-15T10:01:01.307Z,974.7589
2023-01-15T10:02:00.414Z,974.9071
2023-01-15T10:03:00.623Z,975.154
2023-01-15T10:04:00.726Z,975.0545
2023-01-15T10:05:02.240Z,975.198
2023-01-15T10:06:01.036Z,975.3114
2023-01-15T10:07:01.158Z,975.2263
2023-01-15T10:08:00.310Z,975.3298
2023-01-15T10:09:00.451Z,975.3291
2023-01-15T10:10:00.658Z,975.2263
2023-01-15T10:11:00.780Z,975.3291
2023-01-15T10:12:00.913Z,975.4013
2023-01-15T10:13:01.058Z,975.373
2023-01-15T10:14:01.203Z,975.1916
2023-01-15T10:15:00.345Z,975.2695
2023-01-15T10:16:00.570Z,975.3071
2023-01-15T10:17:00.633Z,975.341
2023-01-15T10:18:00.796Z,975.329
2023-01-15T10:19:00.917Z,975.329
2023-01-15T10:20:01.074Z,975.2659
2023-01-15T10:21:01.227Z,975.3998
2023-01-15T10:22:00.353Z,975.4855
2023-01-15T10:23:00.503Z,975.4352
2023-01-15T10:24:00.651Z,975.387
2023-01-15T10:25:00.814Z,975.5004
2023-01-15T10:26:00.969Z,975.387
2023-01-15T10:27:01.104Z,975.472
2023-01-15T10:28:01.249Z,975.3303
2023-01-15T10:29:00.402Z,975.4352
2023-01-15T10:30:00.554Z,975.2269
2023-01-15T10:31:00.716Z,975.3204
2023-01-15T10:32:00.839Z,975.2353
2023-01-15T10:33:02.620Z,975.1503
2023-01-15T10:34:01.151Z,975.207
2023-01-15T10:35:00.275Z,975.292
2023-01-15T10:36:00.448Z,975.4437
2023-01-15T10:37:00.588Z,975.387
2023-01-15T10:38:00.734Z,975.3119
2023-01-15T10:39:00.875Z,975.2269
2023-01-15T10:40:01.048Z,975.3034
2023-01-15T10:41:01.185Z,975.3034
2023-01-15T10:42:00.323Z,975.4069
2023-01-15T10:43:00.477Z,975.3034
2023-01-15T10:44:00.622Z,975.341
2023-01-15T10:45:00.770Z,975.2943
2023-01-15T10:46:00.962Z,975.3602
2023-01-15T10:47:01.079Z,975.4233
2023-01-15T10:48:01.203Z,975.3135
2023-01-15T10:49:00.348Z,975.2787
2023-01-15T10:50:00.522Z,975.3885
2023-01-15T10:51:00.675Z,975.329
2023-01-15T10:52:00.820Z,975.2943
2023-01-15T10:53:00.977Z,975.1809
2023-01-15T10:54:01.120Z,975.2943
2023-01-15T10:55:01.259Z,975.3885
2023-01-15T10:56:00.413Z,975.3602
2023-01-15T10:57:00.561Z,975.4325
2023-01-15T10:58:09.913Z,975.3226
2023-01-15T10:59:00.854Z,975.3694
2023-01-15T11:00:00.986Z,975.4105
2023-01-15T11:01:01.147Z,975.3538
2023-01-15T11:02:00.433Z,975.3885
2023-01-15T11:03:00.459Z,975.3602
2023-01-15T11:04:00.566Z,975.3949
2023-01-15T11:05:00.713Z,975.3602
2023-01-15T11:06:00.861Z,975.3602
2023-01-15T11:07:01.004Z,975.4297
2023-01-15T11:08:39.474Z,975.3517
2023-01-15T11:09:10.277Z,975.2915
2023-01-15T11:10:00.454Z,975.2675
2023-01-15T11:11:00.598Z,975.3645
2023-01-15T11:12:00.826Z,975.3291
2023-01-15T11:13:00.891Z,975.4496
2023-01-15T11:14:01.051Z,975.2675
2023-01-15T11:15:01.212Z,975.3837
2023-01-15T11:16:00.389Z,975.3682
2023-01-15T11:17:00.512Z,975.4249
2023-01-15T11:18:00.684Z,975.2931
2023-01-15T11:19:00.817Z,975.3597
2023-01-15T11:20:00.970Z,975.3285
2023-01-15T11:21:01.102Z,975.3469
2023-01-15T11:22:01.250Z,975.4036
2023-01-15T11:23:00.418Z,975.3398
2023-01-15T11:24:00.553Z,975.4533
2023-01-15T11:25:00.704Z,975.2931
2023-01-15T11:26:00.850Z,975.51
2023-01-15T11:27:00.998Z,975.51
2023-01-15T11:28:01.169Z,975.327
2023-01-15T11:29:00.283Z,975.4972
2023-01-15T11:30:00.427Z,975.4972
2023-01-15T11:31:00.629Z,975.5759
2023-01-15T11:32:00.729Z,975.5255
2023-01-15T11:33:00.891Z,975.639
2023-01-15T11:34:01.036Z,975.6957
2023-01-15T11:35:01.180Z,975.5759
2023-01-15T11:36:00.327Z,975.5914
2023-01-15T11:37:00.468Z,975.6198
2023-01-15T11:38:00.637Z,975.7177
2023-01-15T11:39:00.762Z,975.7524
2023-01-15T11:40:00.908Z,975.6022
2023-01-15T11:41:01.043Z,975.7085
2023-01-15T11:42:01.217Z,975.7369
2023-01-15T11:43:00.363Z,975.7369
2023-01-15T11:44:00.529Z,975.5802
2023-01-15T11:45:00.649Z,975.4917
2023-01-15T11:46:00.809Z,975.669
2023-01-15T11:47:00.941Z,975.723
2023-01-15T11:48:01.131Z,975.7338